Time,TemperatureF,DewpointF,PressureIn,WindDirection,WindDirectionDegrees,WindSpeedMPH,WindSpeedGustMPH,Humidity,HourlyPrecipIn,Conditions,Clouds,dailyrainin,SoftwareType,DateUTC
2013-08-11 00:00:00,87.3,68.0,30.01,North,0,0.0,0.0,53,0.00,,,0.00,WUHU216HW,2013-08-11 05:00:00,
2013-08-11 00:05:00,87.3,68.0,30.01,North,0,0.0,0.0,53,0.00,,,0.00,WUHU216HW,2013-08-11 05:05:00,
2013-08-11 00:30:00,85.9,67.2,30.01,North,0,0.0,0.0,54,0.00,,,0.00,WUHU216HW,2013-08-11 05:30:00,
2013-08-11 00:35:00,85.9,67.2,30.01,North,0,0.0,0.0,54,0.00,,,0.00,WUHU216HW,2013-08-11 05:35:00,
2013-08-11 01:00:00,85.5,67.5,30.01,North,0,0.0,0.0,55,0.00,,,0.00,WUHU216HW,2013-08-11 06:00:00,
2013-08-11 01:05:00,85.5,67.5,30.01,North,0,0.0,0.0,55,0.00,,,0.00,WUHU216HW,2013-08-11 06:05:00,
2013-08-11 01:30:00,84.6,67.7,30.01,North,0,0.0,0.0,57,0.00,,,0.00,WUHU216HW,2013-08-11 06:30:00,
2013-08-11 01:35:00,84.6,67.7,30.01,North,0,0.0,0.0,57,0.00,,,0.00,WUHU216HW,2013-08-11 06:35:00,
2013-08-11 02:00:00,83.7,67.9,30.01,North,0,0.0,0.0,59,0.00,,,0.00,WUHU216HW,2013-08-11 07:00:00,
2013-08-11 02:05:00,83.7,67.9,30.01,North,0,0.0,0.0,59,0.00,,,0.00,WUHU216HW,2013-08-11 07:05:00,
2013-08-11 02:30:00,82.8,68.0,30.01,North,0,0.0,0.0,61,0.00,,,0.00,WUHU216HW,2013-08-11 07:30:00,
2013-08-11 02:35:00,82.8,68.0,30.01,North,0,0.0,0.0,61,0.00,,,0.00,WUHU216HW,2013-08-11 07:35:00,
2013-08-11 03:00:00,81.7,67.0,30.00,North,0,0.0,0.0,61,0.00,,,0.00,WUHU216HW,2013-08-11 08:00:00,
2013-08-11 03:05:00,81.7,67.0,30.00,North,0,0.0,0.0,61,0.00,,,0.00,WUHU216HW,2013-08-11 08:05:00,
2013-08-11 03:30:00,81.4,66.6,30.00,North,0,0.0,0.0,61,0.00,,,0.00,WUHU216HW,2013-08-11 08:30:00,
2013-08-11 03:35:00,81.4,66.6,30.00,North,0,0.0,0.0,61,0.00,,,0.00,WUHU216HW,2013-08-11 08:35:00,
2013-08-11 04:00:00,80.8,66.6,30.00,North,0,0.0,0.0,62,0.00,,,0.00,WUHU216HW,2013-08-11 09:00:00,
2013-08-11 04:05:00,80.8,66.6,30.00,North,0,0.0,0.0,62,0.00,,,0.00,WUHU216HW,2013-08-11 09:05:00,
2013-08-11 04:30:00,79.9,66.6,30.00,North,0,0.0,0.0,64,0.00,,,0.00,WUHU216HW,2013-08-11 09:30:00,
2013-08-11 04:35:00,79.9,66.6,30.00,North,0,0.0,0.0,64,0.00,,,0.00,WUHU216HW,2013-08-11 09:35:00,
2013-08-11 05:00:00,79.6,66.8,30.00,North,0,0.0,0.0,65,0.00,,,0.00,WUHU216HW,2013-08-11 10:00:00,
2013-08-11 05:05:00,79.6,66.8,30.00,North,0,0.0,0.0,65,0.00,,,0.00,WUHU216HW,2013-08-11 10:05:00,
2013-08-11 05:30:00,79.7,67.3,30.00,North,0,0.0,0.0,66,0.00,,,0.00,WUHU216HW,2013-08-11 10:30:00,
2013-08-11 05:31:00,79.7,67.3,30.00,North,0,0.0,0.0,66,0.00,,,0.00,WUHU216HW,2013-08-11 10:31:00,
2013-08-11 05:36:00,79.7,67.3,30.00,North,0,0.0,0.0,66,0.00,,,0.00,WUHU216HW,2013-08-11 10:36:00,
2013-08-11 06:00:00,80.3,67.9,30.00,North,0,0.0,0.0,66,0.00,,,0.00,WUHU216HW,2013-08-11 11:00:00,
2013-08-11 06:05:00,80.3,67.9,30.00,North,0,0.0,0.0,66,0.00,,,0.00,WUHU216HW,2013-08-11 11:05:00,
2013-08-11 06:30:00,78.8,68.2,30.01,North,0,0.0,0.0,70,0.00,,,0.00,WUHU216HW,2013-08-11 11:30:00,
2013-08-11 06:35:00,78.8,68.2,30.01,North,0,0.0,0.0,70,0.00,,,0.00,WUHU216HW,2013-08-11 11:35:00,
2013-08-11 07:00:00,78.1,68.0,30.03,North,0,0.0,0.0,71,0.00,,,0.00,WUHU216HW,2013-08-11 12:00:00,
2013-08-11 07:05:00,78.1,68.0,30.03,North,0,0.0,0.0,71,0.00,,,0.00,WUHU216HW,2013-08-11 12:05:00,
2013-08-11 07:30:00,77.8,68.1,30.03,North,0,0.0,0.0,72,0.00,,,0.00,WUHU216HW,2013-08-11 12:30:00,
2013-08-11 07:31:00,77.8,68.1,30.03,North,0,0.0,0.0,72,0.00,,,0.00,WUHU216HW,2013-08-11 12:31:00,
2013-08-11 07:36:00,77.8,68.1,30.03,North,0,0.0,0.0,72,0.00,,,0.00,WUHU216HW,2013-08-11 12:36:00,
2013-08-11 08:00:00,78.8,69.0,30.04,North,0,0.0,0.0,72,0.00,,,0.00,WUHU216HW,2013-08-11 13:00:00,
2013-08-11 08:05:00,78.8,69.0,30.04,North,0,0.0,0.0,72,0.00,,,0.00,WUHU216HW,2013-08-11 13:05:00,
2013-08-11 08:30:00,81.0,70.4,30.04,North,0,0.0,0.0,70,0.00,,,0.00,WUHU216HW,2013-08-11 13:30:00,
2013-08-11 08:36:00,81.0,70.4,30.04,North,0,0.0,0.0,70,0.00,,,0.00,WUHU216HW,2013-08-11 13:36:00,
2013-08-11 09:00:00,83.2,71.5,30.05,North,0,0.0,0.0,68,0.00,,,0.00,WUHU216HW,2013-08-11 14:00:00,
2013-08-11 09:05:00,83.2,71.5,30.05,North,0,0.0,0.0,68,0.00,,,0.00,WUHU216HW,2013-08-11 14:05:00,
2013-08-11 09:30:00,85.0,71.9,30.05,North,0,0.0,0.0,65,0.00,,,0.00,WUHU216HW,2013-08-11 14:30:00,
2013-08-11 09:35:00,85.0,71.9,30.05,North,0,0.0,0.0,65,0.00,,,0.00,WUHU216HW,2013-08-11 14:35:00,
2013-08-11 10:00:00,86.4,71.8,30.05,North,0,0.0,0.0,62,0.00,,,0.00,WUHU216HW,2013-08-11 15:00:00,
2013-08-11 10:05:00,86.4,71.8,30.05,North,0,0.0,0.0,62,0.00,,,0.00,WUHU216HW,2013-08-11 15:05:00,
2013-08-11 10:30:00,87.3,71.3,30.05,North,0,0.0,0.0,59,0.00,,,0.00,WUHU216HW,2013-08-11 15:30:00,
2013-08-11 10:36:00,87.3,71.3,30.05,North,0,0.0,0.0,59,0.00,,,0.00,WUHU216HW,2013-08-11 15:36:00,
2013-08-11 11:00:00,88.9,71.7,30.06,North,0,0.0,0.0,57,0.00,,,0.00,WUHU216HW,2013-08-11 16:00:00,
2013-08-11 11:05:00,88.9,71.7,30.06,North,0,0.0,0.0,57,0.00,,,0.00,WUHU216HW,2013-08-11 16:05:00,
2013-08-11 11:30:00,90.4,72.5,30.05,North,0,0.0,0.0,56,0.00,,,0.00,WUHU216HW,2013-08-11 16:30:00,
2013-08-11 11:35:00,90.4,72.5,30.05,North,0,0.0,0.0,56,0.00,,,0.00,WUHU216HW,2013-08-11 16:35:00,
2013-08-11 12:00:00,91.3,71.6,30.04,North,0,0.0,0.0,53,0.00,,,0.00,WUHU216HW,2013-08-11 17:00:00,
2013-08-11 12:06:00,91.3,71.6,30.04,North,0,0.0,0.0,53,0.00,,,0.00,WUHU216HW,2013-08-11 17:06:00,
2013-08-11 12:30:00,93.2,72.4,30.04,North,0,0.0,0.0,51,0.00,,,0.00,WUHU216HW,2013-08-11 17:30:00,
2013-08-11 12:35:00,93.2,72.4,30.04,North,0,0.0,0.0,51,0.00,,,0.00,WUHU216HW,2013-08-11 17:35:00,
2013-08-11 13:00:00,94.7,71.3,30.03,North,0,0.0,0.0,47,0.00,,,0.00,WUHU216HW,2013-08-11 18:00:00,
2013-08-11 13:05:00,94.7,71.3,30.03,North,0,0.0,0.0,47,0.00,,,0.00,WUHU216HW,2013-08-11 18:05:00,
2013-08-11 13:30:00,96.5,71.6,30.02,North,0,0.0,0.0,45,0.00,,,0.00,WUHU216HW,2013-08-11 18:30:00,
2013-08-11 13:31:00,96.5,71.6,30.02,North,0,0.0,0.0,45,0.00,,,0.00,WUHU216HW,2013-08-11 18:31:00,
2013-08-11 13:36:00,96.5,71.6,30.02,North,0,0.0,0.0,45,0.00,,,0.00,WUHU216HW,2013-08-11 18:36:00,
2013-08-11 14:00:00,95.8,70.3,30.01,North,0,0.0,0.0,44,0.00,,,0.00,WUHU216HW,2013-08-11 19:00:00,
2013-08-11 14:05:00,95.8,70.3,30.01,North,0,0.0,0.0,44,0.00,,,0.00,WUHU216HW,2013-08-11 19:05:00,
2013-08-11 14:30:00,97.6,71.2,30.00,North,0,0.0,0.0,43,0.00,,,0.00,WUHU216HW,2013-08-11 19:30:00,
2013-08-11 14:31:00,97.6,71.2,30.00,North,0,0.0,0.0,43,0.00,,,0.00,WUHU216HW,2013-08-11 19:31:00,
2013-08-11 14:36:00,97.6,71.2,30.00,North,0,0.0,0.0,43,0.00,,,0.00,WUHU216HW,2013-08-11 19:36:00,
2013-08-11 15:00:00,98.8,71.7,29.98,North,0,0.0,0.0,42,0.00,,,0.00,WUHU216HW,2013-08-11 20:00:00,
2013-08-11 15:05:00,98.8,71.7,29.98,North,0,0.0,0.0,42,0.00,,,0.00,WUHU216HW,2013-08-11 20:05:00,
2013-08-11 15:30:00,99.7,71.8,29.97,North,0,0.0,0.0,41,0.00,,,0.00,WUHU216HW,2013-08-11 20:30:00,
2013-08-11 15:35:00,99.7,71.8,29.97,North,0,0.0,0.0,41,0.00,,,0.00,WUHU216HW,2013-08-11 20:35:00,
2013-08-11 16:00:00,95.9,71.7,29.96,North,0,0.0,0.0,46,0.01,,,0.00,WUHU216HW,2013-08-11 21:00:00,
2013-08-11 16:05:00,95.9,71.7,29.96,North,0,0.0,0.0,46,0.01,,,0.00,WUHU216HW,2013-08-11 21:05:00,
2013-08-11 16:30:00,98.1,68.9,29.95,North,0,0.0,0.0,39,0.01,,,0.00,WUHU216HW,2013-08-11 21:30:00,
2013-08-11 16:35:00,98.1,68.9,29.95,North,0,0.0,0.0,39,0.01,,,0.00,WUHU216HW,2013-08-11 21:35:00,
2013-08-11 17:00:00,99.2,69.8,29.94,North,0,0.0,0.0,39,0.00,,,0.00,WUHU216HW,2013-08-11 22:00:00,
2013-08-11 17:05:00,99.2,69.8,29.94,North,0,0.0,0.0,39,0.00,,,0.00,WUHU216HW,2013-08-11 22:05:00,
2013-08-11 17:30:00,98.5,69.2,29.94,North,0,0.0,0.0,39,0.00,,,0.00,WUHU216HW,2013-08-11 22:30:00,
2013-08-11 17:35:00,98.5,69.2,29.94,North,0,0.0,0.0,39,0.00,,,0.00,WUHU216HW,2013-08-11 22:35:00,
2013-08-11 18:00:00,98.5,69.2,29.94,North,0,0.0,0.0,39,0.00,,,0.00,WUHU216HW,2013-08-11 23:00:00,
2013-08-11 18:05:00,98.5,69.2,29.94,North,0,0.0,0.0,39,0.00,,,0.00,WUHU216HW,2013-08-11 23:05:00,
2013-08-11 18:30:00,97.7,68.6,29.93,North,0,0.0,0.0,39,0.00,,,0.00,WUHU216HW,2013-08-11 23:30:00,
2013-08-11 18:35:00,97.7,68.6,29.93,North,0,0.0,0.0,39,0.00,,,0.00,WUHU216HW,2013-08-11 23:35:00,
2013-08-11 19:00:00,96.7,68.4,29.94,North,0,0.0,0.0,40,0.00,,,0.00,WUHU216HW,2013-08-12 00:00:00,
2013-08-11 19:05:00,96.7,68.4,29.94,North,0,0.0,0.0,40,0.00,,,0.00,WUHU216HW,2013-08-12 00:05:00,
2013-08-11 19:30:00,96.1,68.0,29.94,North,0,0.0,0.0,40,0.00,,,0.00,WUHU216HW,2013-08-12 00:30:00,
2013-08-11 19:35:00,96.1,68.0,29.94,North,0,0.0,0.0,40,0.00,,,0.00,WUHU216HW,2013-08-12 00:35:00,
2013-08-11 20:00:00,95.4,68.0,29.94,North,0,0.0,0.0,41,0.00,,,0.00,WUHU216HW,2013-08-12 01:00:00,
2013-08-11 20:05:00,95.4,68.0,29.94,North,0,0.0,0.0,41,0.00,,,0.00,WUHU216HW,2013-08-12 01:05:00,
2013-08-11 20:30:00,89.5,68.9,29.96,North,0,0.0,0.0,51,0.00,,,0.00,WUHU216HW,2013-08-12 01:30:00,
2013-08-11 20:35:00,89.5,68.9,29.96,North,0,0.0,0.0,51,0.00,,,0.00,WUHU216HW,2013-08-12 01:35:00,
2013-08-11 21:00:00,87.8,68.0,29.96,North,0,0.0,0.0,52,0.00,,,0.00,WUHU216HW,2013-08-12 02:00:00,
2013-08-11 21:05:00,87.8,68.0,29.96,North,0,0.0,0.0,52,0.00,,,0.00,WUHU216HW,2013-08-12 02:05:00,
2013-08-11 21:30:00,87.1,67.4,29.96,North,0,0.0,0.0,52,0.00,,,0.00,WUHU216HW,2013-08-12 02:30:00,
2013-08-11 21:31:00,87.1,67.4,29.96,North,0,0.0,0.0,52,0.00,,,0.00,WUHU216HW,2013-08-12 02:31:00,
2013-08-11 21:36:00,87.1,67.4,29.96,North,0,0.0,0.0,52,0.00,,,0.00,WUHU216HW,2013-08-12 02:36:00,
2013-08-11 22:00:00,87.8,67.0,29.97,North,0,0.0,0.0,50,0.00,,,0.00,WUHU216HW,2013-08-12 03:00:00,
2013-08-11 22:05:00,87.8,67.0,29.97,North,0,0.0,0.0,50,0.00,,,0.00,WUHU216HW,2013-08-12 03:05:00,
2013-08-11 22:30:00,87.8,68.0,29.99,North,0,0.0,0.0,52,0.00,,,0.00,WUHU216HW,2013-08-12 03:30:00,
2013-08-11 22:35:00,87.8,68.0,29.99,North,0,0.0,0.0,52,0.00,,,0.00,WUHU216HW,2013-08-12 03:35:00,
2013-08-11 23:00:00,86.8,68.1,30.02,North,0,0.0,0.0,54,0.00,,,0.00,WUHU216HW,2013-08-12 04:00:00,
2013-08-11 23:01:00,86.8,68.1,30.02,North,0,0.0,0.0,54,0.00,,,0.00,WUHU216HW,2013-08-12 04:01:00,
2013-08-11 23:04:00,86.8,68.1,30.02,North,0,0.0,0.0,54,0.00,,,0.00,WUHU216HW,2013-08-12 04:04:00,
2013-08-11 23:09:00,86.8,68.1,30.02,North,0,0.0,0.0,54,0.00,,,0.00,WUHU216HW,2013-08-12 04:09:00,
2013-08-11 23:30:00,85.3,68.3,30.02,North,0,0.0,0.0,57,0.00,,,0.00,WUHU216HW,2013-08-12 04:30:00,
2013-08-11 23:35:00,85.3,68.3,30.02,North,0,0.0,0.0,57,0.00,,,0.00,WUHU216HW,2013-08-12 04:35:00,